createdAt,value
2017-10-28T00:00:07.573Z,7.57
2017-10-28T00:02:33.718Z,6.07
2017-10-28T00:04:59.908Z,9.60
2017-10-28T00:07:26.849Z,11.60
2017-10-28T00:09:53.788Z,19.67
2017-10-28T00:12:20.005Z,7.07
2017-10-28T00:14:46.213Z,7.37
2017-10-28T00:17:12.398Z,11.53
2017-10-28T00:19:39.293Z,12.03
2017-10-28T00:22:05.477Z,3.13
2017-10-28T00:24:32.377Z,8.60
2017-10-28T00:26:58.542Z,4.10
2017-10-28T00:29:24.719Z,5.93
2017-10-28T00:31:57.681Z,9.20
2017-10-28T00:34:30.673Z,5.60
2017-10-28T00:36:57.576Z,3.00
2017-10-28T00:39:23.801Z,4.90
2017-10-28T00:41:49.964Z,6.60
2017-10-28T00:44:16.134Z,5.37
2017-10-28T00:46:44.067Z,11.93
2017-10-28T00:49:10.305Z,19.83
2017-10-28T00:51:36.451Z,15.77
2017-10-28T00:54:02.647Z,9.13
2017-10-28T00:56:28.889Z,11.43
2017-10-28T00:58:55.072Z,7.73
2017-10-28T01:01:21.985Z,4.20
2017-10-28T01:03:48.190Z,12.77
2017-10-28T01:06:14.361Z,22.97
2017-10-28T01:08:40.586Z,8.33
2017-10-28T01:11:06.744Z,24.97
2017-10-28T01:13:33.059Z,7.03
2017-10-28T01:16:00.022Z,10.87
2017-10-28T01:18:26.958Z,10.60
2017-10-28T01:20:53.191Z,21.63
2017-10-28T01:23:19.373Z,14.87
2017-10-28T01:25:45.693Z,12.50
2017-10-28T01:28:12.647Z,5.93
2017-10-28T01:30:39.590Z,12.53
2017-10-28T01:33:06.574Z,11.80
2017-10-28T01:35:32.779Z,20.00
2017-10-28T01:37:59.677Z,9.60
2017-10-28T01:40:25.885Z,11.90
2017-10-28T01:42:52.780Z,8.47
2017-10-28T01:45:18.981Z,5.13
2017-10-28T01:47:45.155Z,14.53
2017-10-28T01:50:11.317Z,19.80
2017-10-28T01:52:38.233Z,11.43
2017-10-28T01:55:04.440Z,11.00
2017-10-28T01:57:30.648Z,6.63
2017-10-28T01:59:56.812Z,7.03
2017-10-28T02:02:23.031Z,6.50
2017-10-28T02:04:49.229Z,6.23
2017-10-28T02:07:15.429Z,14.00
2017-10-28T02:09:41.710Z,21.40
2017-10-28T02:12:08.660Z,12.70
2017-10-28T02:14:36.953Z,5.43
2017-10-28T02:17:03.158Z,9.50
2017-10-28T02:19:29.314Z,14.83
2017-10-28T02:21:56.217Z,11.40
2017-10-28T02:24:22.413Z,19.03
2017-10-28T02:26:48.585Z,11.07
2017-10-28T02:29:14.765Z,21.23
2017-10-28T02:31:43.409Z,7.17
2017-10-28T02:34:10.398Z,12.60
2017-10-28T02:36:37.312Z,7.20
2017-10-28T02:39:03.494Z,11.43
2017-10-28T02:41:29.673Z,18.20
2017-10-28T02:43:55.829Z,13.30
2017-10-28T02:46:22.749Z,9.50
2017-10-28T02:48:48.942Z,10.10
2017-10-28T02:51:15.117Z,19.57
2017-10-28T02:53:41.321Z,13.20
2017-10-28T02:56:07.481Z,15.67
2017-10-28T02:58:33.672Z,6.57
2017-10-28T03:01:00.597Z,12.87
2017-10-28T03:03:26.770Z,12.63
2017-10-28T03:05:52.937Z,12.00
2017-10-28T03:08:19.096Z,10.53
2017-10-28T03:10:45.269Z,11.60
2017-10-28T03:13:11.458Z,6.23
2017-10-28T03:15:37.732Z,14.50
2017-10-28T03:18:03.900Z,9.60
2017-10-28T03:20:30.116Z,11.53
2017-10-28T03:22:56.302Z,15.30
2017-10-28T03:25:22.492Z,5.07
2017-10-28T03:27:48.686Z,10.10
2017-10-28T03:30:15.643Z,13.10
2017-10-28T03:32:41.846Z,6.97
2017-10-28T03:35:08.034Z,12.67
2017-10-28T03:37:34.222Z,7.83
2017-10-28T03:40:01.148Z,10.23
2017-10-28T03:42:27.312Z,8.57
2017-10-28T03:44:54.220Z,14.00
2017-10-28T03:47:20.388Z,14.47
2017-10-28T03:49:46.573Z,14.60
2017-10-28T03:52:12.762Z,20.07
2017-10-28T03:54:39.675Z,10.80
2017-10-28T03:57:05.824Z,12.67
2017-10-28T03:59:31.997Z,6.10
2017-10-28T04:01:58.172Z,9.30
2017-10-28T04:04:24.338Z,9.80
2017-10-28T04:06:51.311Z,15.60
2017-10-28T04:09:17.493Z,14.23
2017-10-28T04:11:43.677Z,30.80
2017-10-28T04:14:10.601Z,28.57
2017-10-28T04:16:37.683Z,15.27
2017-10-28T04:19:03.882Z,4.20
2017-10-28T04:21:30.074Z,7.37
2017-10-28T04:23:56.253Z,11.07
2017-10-28T04:26:22.421Z,14.20
2017-10-28T04:28:49.340Z,5.80
2017-10-28T04:31:16.985Z,11.20
2017-10-28T04:33:43.166Z,14.17
2017-10-28T04:36:09.374Z,10.83
2017-10-28T04:38:35.554Z,8.40
2017-10-28T04:41:01.746Z,11.00
2017-10-28T04:43:28.690Z,23.90
2017-10-28T04:45:54.845Z,16.73
2017-10-28T04:48:21.770Z,11.30
2017-10-28T04:50:47.981Z,16.13
2017-10-28T04:53:14.154Z,11.77
2017-10-28T04:55:40.329Z,5.23
2017-10-28T04:58:06.535Z,7.50
2017-10-28T05:00:33.445Z,10.47
2017-10-28T05:02:59.609Z,14.00
2017-10-28T05:05:26.540Z,8.83
2017-10-28T05:07:52.753Z,11.20
2017-10-28T05:10:18.969Z,7.57
2017-10-28T05:12:45.163Z,17.57
2017-10-28T05:15:11.342Z,4.87
2017-10-28T05:17:37.846Z,12.23
2017-10-28T05:20:04.769Z,17.87
2017-10-28T05:22:31.666Z,16.10
2017-10-28T05:24:57.813Z,14.60
2017-10-28T05:27:24.002Z,10.97
2017-10-28T05:29:50.902Z,8.63
2017-10-28T05:32:17.066Z,12.53
2017-10-28T05:34:44.130Z,14.53
2017-10-28T05:37:11.050Z,12.27
2017-10-28T05:39:37.286Z,10.80
2017-10-28T05:42:03.501Z,9.27
2017-10-28T05:44:29.678Z,12.27
2017-10-28T05:46:56.607Z,9.50
2017-10-28T05:49:22.796Z,13.03
2017-10-28T05:51:48.956Z,8.73
2017-10-28T05:54:15.146Z,9.40
2017-10-28T05:56:42.103Z,11.30
2017-10-28T05:59:08.313Z,9.87
2017-10-28T06:01:35.258Z,17.33
2017-10-28T06:04:01.432Z,12.90
2017-10-28T06:06:27.612Z,14.40
2017-10-28T06:08:53.791Z,14.37
2017-10-28T06:11:19.993Z,13.03
2017-10-28T06:13:46.195Z,14.47
2017-10-28T06:16:12.386Z,9.37
2017-10-28T06:18:39.477Z,8.07
2017-10-28T06:21:05.634Z,15.73
2017-10-28T06:23:31.836Z,8.67
2017-10-28T06:25:57.993Z,13.60
2017-10-28T06:28:24.972Z,14.33
2017-10-28T06:30:51.150Z,13.73
2017-10-28T06:33:17.397Z,16.03
2017-10-28T06:35:43.575Z,16.30
2017-10-28T06:38:10.476Z,14.00
2017-10-28T06:40:37.458Z,8.00
2017-10-28T06:43:03.684Z,14.80
2017-10-28T06:45:29.879Z,13.07
2017-10-28T06:47:56.078Z,17.87
2017-10-28T06:50:23.025Z,21.93
2017-10-28T06:52:49.201Z,12.20
2017-10-28T06:55:15.418Z,18.00
2017-10-28T06:57:41.607Z,10.20
2017-10-28T07:00:08.534Z,10.13
2017-10-28T07:02:34.760Z,18.27
2017-10-28T07:05:00.947Z,13.60
2017-10-28T07:07:27.890Z,11.40
2017-10-28T07:09:54.910Z,18.67
2017-10-28T07:12:21.071Z,20.80
2017-10-28T07:14:48.015Z,17.63
2017-10-28T07:17:14.217Z,8.80
2017-10-28T07:19:40.488Z,10.57
2017-10-28T07:22:06.737Z,8.60
2017-10-28T07:24:33.697Z,21.37
2017-10-28T07:27:00.607Z,16.73
2017-10-28T07:29:26.786Z,23.07
2017-10-28T07:31:53.713Z,17.83
2017-10-28T07:34:20.658Z,9.60
2017-10-28T07:36:46.827Z,26.50
2017-10-28T07:39:13.063Z,13.37
2017-10-28T07:41:39.332Z,13.13
2017-10-28T07:44:06.326Z,13.20
2017-10-28T07:46:33.980Z,9.60
2017-10-28T07:49:00.911Z,18.67
2017-10-28T07:51:27.109Z,17.10
2017-10-28T07:53:53.326Z,16.77
2017-10-28T07:56:20.236Z,10.67
2017-10-28T07:58:46.460Z,21.07
2017-10-28T08:01:12.658Z,14.87
2017-10-28T08:03:45.084Z,18.90
2017-10-28T08:06:11.298Z,15.67
2017-10-28T08:08:37.483Z,13.97
2017-10-28T08:11:03.631Z,9.73
2017-10-28T08:13:30.538Z,12.23
2017-10-28T08:15:56.718Z,12.87
2017-10-28T08:18:22.914Z,11.77
2017-10-28T08:20:49.213Z,24.13
2017-10-28T08:23:15.417Z,13.43
2017-10-28T08:25:41.625Z,23.53
2017-10-28T08:28:08.569Z,17.07
2017-10-28T08:30:36.009Z,18.73
2017-10-28T08:33:03.923Z,12.20
2017-10-28T08:35:30.851Z,20.97
2017-10-28T08:37:57.047Z,14.83
2017-10-28T08:40:23.225Z,20.60
2017-10-28T08:42:49.445Z,13.70
2017-10-28T08:45:15.701Z,17.90
2017-10-28T08:47:42.629Z,15.50
2017-10-28T08:50:08.788Z,14.80
2017-10-28T08:52:35.749Z,15.47
2017-10-28T08:55:02.702Z,8.47
2017-10-28T08:57:28.925Z,11.60
2017-10-28T08:59:55.858Z,11.50
2017-10-28T09:02:22.837Z,8.67
2017-10-28T09:04:49.747Z,12.63
2017-10-28T09:07:15.943Z,11.10
2017-10-28T09:09:42.239Z,11.93
2017-10-28T09:12:08.442Z,14.20
2017-10-28T09:14:34.625Z,18.00
2017-10-28T09:17:00.834Z,16.73
2017-10-28T09:19:27.772Z,19.40
2017-10-28T09:21:54.058Z,10.43
2017-10-28T09:24:20.225Z,15.63
2017-10-28T09:26:46.418Z,23.07
2017-10-28T09:29:12.618Z,16.90
2017-10-28T09:31:38.806Z,15.73
2017-10-28T09:34:05.000Z,12.60
2017-10-28T09:36:31.974Z,21.40
2017-10-28T09:38:58.158Z,25.77
2017-10-28T09:41:24.376Z,13.30
2017-10-28T09:43:50.578Z,22.73
2017-10-28T09:46:16.746Z,25.83
2017-10-28T09:48:42.921Z,13.03
2017-10-28T09:51:09.142Z,18.40
2017-10-28T09:53:36.043Z,26.03
2017-10-28T09:56:02.290Z,10.87
2017-10-28T09:58:29.220Z,24.17
2017-10-28T10:00:55.442Z,31.60
2017-10-28T10:03:21.644Z,50.97
2017-10-28T10:05:47.882Z,18.03
2017-10-28T10:08:14.089Z,32.93
2017-10-28T10:10:40.266Z,24.53
2017-10-28T10:13:07.191Z,26.23
2017-10-28T10:15:33.345Z,23.83
2017-10-28T10:18:07.446Z,22.97
2017-10-28T10:20:33.682Z,21.97
2017-10-28T10:22:59.965Z,15.13
2017-10-28T10:25:26.147Z,22.03
2017-10-28T10:27:52.329Z,20.30
2017-10-28T10:30:18.510Z,21.93
2017-10-28T10:32:44.689Z,20.23
2017-10-28T10:35:10.939Z,23.97
2017-10-28T10:37:38.066Z,28.53
2017-10-28T10:40:04.317Z,16.57
2017-10-28T10:42:30.497Z,23.40
2017-10-28T10:44:56.671Z,23.13
2017-10-28T10:47:23.577Z,26.70
2017-10-28T10:49:49.748Z,20.17
2017-10-28T10:52:16.691Z,21.73
2017-10-28T10:54:43.009Z,22.70
2017-10-28T10:57:09.173Z,26.73
2017-10-28T10:59:35.386Z,34.73
2017-10-28T11:02:01.589Z,29.47
2017-10-28T11:04:27.808Z,16.90
2017-10-28T11:06:54.033Z,28.33
2017-10-28T11:09:20.236Z,30.10
2017-10-28T11:11:47.236Z,28.33
2017-10-28T11:14:14.142Z,16.60
2017-10-28T11:16:40.368Z,28.10
2017-10-28T11:19:07.358Z,24.97
2017-10-28T11:21:33.588Z,27.10
2017-10-28T11:24:01.615Z,23.93
2017-10-28T11:26:27.841Z,33.53
2017-10-28T11:28:54.796Z,26.50
2017-10-28T11:31:20.995Z,33.97
2017-10-28T11:33:47.206Z,25.07
2017-10-28T11:36:13.406Z,22.20
2017-10-28T11:38:39.585Z,28.43
2017-10-28T11:41:05.835Z,30.73
2017-10-28T11:43:32.007Z,32.63
2017-10-28T11:45:58.973Z,32.00
2017-10-28T11:48:25.869Z,28.57
2017-10-28T11:50:52.053Z,34.80
2017-10-28T11:53:19.017Z,19.40
2017-10-28T11:55:45.191Z,21.27
2017-10-28T11:58:11.405Z,26.27
2017-10-28T12:00:37.606Z,36.40
2017-10-28T12:03:04.532Z,31.07
2017-10-28T12:05:30.735Z,38.23
2017-10-28T12:07:56.943Z,27.83
2017-10-28T12:10:23.142Z,28.23
2017-10-28T12:12:50.831Z,42.57
2017-10-28T12:15:17.773Z,23.87
2017-10-28T12:17:44.770Z,26.80
2017-10-28T12:20:11.000Z,24.30
2017-10-28T12:22:37.198Z,29.27
2017-10-28T12:25:04.213Z,27.57
2017-10-28T12:27:30.407Z,19.67
2017-10-28T12:29:56.716Z,25.77
2017-10-28T12:32:22.906Z,30.47
2017-10-28T12:34:49.090Z,31.53
2017-10-28T12:37:16.046Z,26.70
2017-10-28T12:39:42.981Z,36.80
2017-10-28T12:42:09.892Z,25.67
2017-10-28T12:44:36.066Z,26.77
2017-10-28T12:47:02.304Z,35.07
2017-10-28T12:49:29.266Z,33.10
2017-10-28T12:51:56.182Z,23.73
2017-10-28T12:54:22.381Z,30.43
2017-10-28T12:56:48.548Z,22.60
2017-10-28T12:59:14.743Z,25.97
2017-10-28T13:01:40.901Z,32.67
2017-10-28T13:04:07.097Z,37.10
2017-10-28T13:06:33.370Z,34.93
2017-10-28T13:08:59.597Z,33.80
2017-10-28T13:11:25.847Z,34.77
2017-10-28T13:13:52.025Z,30.73
2017-10-28T13:16:18.920Z,32.87
2017-10-28T13:18:45.102Z,48.63
2017-10-28T13:21:11.295Z,26.77
2017-10-28T13:23:37.468Z,33.87
2017-10-28T13:26:04.432Z,42.87
2017-10-28T13:28:30.619Z,21.83
2017-10-28T13:30:56.812Z,32.63
2017-10-28T13:33:22.970Z,27.67
2017-10-28T13:35:49.154Z,40.27
2017-10-28T13:38:16.090Z,36.60
2017-10-28T13:40:42.258Z,40.47
2017-10-28T13:43:09.222Z,27.53
2017-10-28T13:45:35.399Z,32.13
2017-10-28T13:48:01.617Z,35.80
2017-10-28T13:50:27.836Z,21.20
2017-10-28T13:52:54.055Z,22.17
2017-10-28T13:55:20.324Z,28.63
2017-10-28T13:57:48.021Z,29.40
2017-10-28T14:00:14.207Z,38.90
2017-10-28T14:02:40.374Z,35.77
2017-10-28T14:05:06.550Z,41.50
2017-10-28T14:07:32.737Z,31.70
2017-10-28T14:09:58.930Z,34.47
2017-10-28T14:12:26.645Z,34.50
2017-10-28T14:14:52.829Z,36.40
2017-10-28T14:17:19.019Z,39.03
2017-10-28T14:19:45.213Z,31.83
2017-10-28T14:22:12.168Z,34.70
2017-10-28T14:24:38.361Z,36.53
2017-10-28T14:27:04.601Z,46.83
2017-10-28T14:29:30.782Z,33.83
2017-10-28T14:31:56.967Z,27.07
2017-10-28T14:34:23.143Z,36.93
2017-10-28T14:36:49.326Z,30.33
2017-10-28T14:39:15.513Z,36.90
2017-10-28T14:41:41.727Z,37.87
2017-10-28T14:44:07.909Z,38.70
2017-10-28T14:46:34.140Z,28.37
2017-10-28T14:49:01.093Z,22.33
2017-10-28T14:51:28.033Z,31.50
2017-10-28T14:53:55.015Z,30.17
2017-10-28T14:56:21.953Z,23.83
2017-10-28T14:58:48.916Z,36.77
2017-10-28T15:01:15.837Z,34.20
2017-10-28T15:03:42.046Z,30.03
2017-10-28T15:06:08.243Z,33.03
2017-10-28T15:08:34.413Z,24.40
2017-10-28T15:11:00.629Z,30.20
2017-10-28T15:13:26.926Z,19.60
2017-10-28T15:15:53.142Z,32.93
2017-10-28T15:18:19.380Z,23.83
2017-10-28T15:20:45.574Z,30.60
2017-10-28T15:23:11.786Z,27.80
2017-10-28T15:25:38.015Z,37.30
2017-10-28T15:28:04.248Z,31.87
2017-10-28T15:30:30.430Z,32.17
2017-10-28T15:32:56.661Z,28.40
2017-10-28T15:35:23.644Z,25.27
2017-10-28T15:37:50.565Z,24.10
2017-10-28T15:40:17.577Z,23.77
2017-10-28T15:42:43.785Z,19.10
2017-10-28T15:45:10.106Z,15.50
2017-10-28T15:47:37.095Z,21.83
2017-10-28T15:50:03.294Z,21.97
2017-10-28T15:52:30.230Z,17.93
2017-10-28T15:54:57.278Z,20.90
2017-10-28T15:57:23.461Z,18.00
2017-10-28T15:59:49.634Z,18.17
2017-10-28T16:02:15.814Z,25.80
2017-10-28T16:04:42.754Z,23.17
2017-10-28T16:07:08.889Z,22.57
2017-10-28T16:09:35.829Z,26.90
2017-10-28T16:12:02.006Z,15.17
2017-10-28T16:14:28.165Z,29.83
2017-10-28T16:16:54.382Z,19.10
2017-10-28T16:19:20.560Z,24.77
2017-10-28T16:21:46.730Z,24.27
2017-10-28T16:24:12.930Z,15.40
2017-10-28T16:26:39.948Z,36.53
2017-10-28T16:29:06.374Z,34.93
2017-10-28T16:31:32.584Z,16.97
2017-10-28T16:33:59.490Z,14.23
2017-10-28T16:36:25.661Z,12.57
2017-10-28T16:38:52.590Z,18.13
2017-10-28T16:41:19.518Z,12.43
2017-10-28T16:43:45.698Z,13.90
2017-10-28T16:46:11.921Z,13.90
2017-10-28T16:48:38.821Z,12.50
2017-10-28T16:51:05.065Z,16.70
2017-10-28T16:53:32.839Z,13.67
2017-10-28T16:55:59.014Z,19.50
2017-10-28T16:58:25.943Z,14.87
2017-10-28T17:00:52.151Z,8.33
2017-10-28T17:03:18.318Z,7.90
2017-10-28T17:05:44.475Z,12.67
2017-10-28T17:08:11.464Z,8.77
2017-10-28T17:10:37.650Z,7.80
2017-10-28T17:13:04.626Z,13.63
2017-10-28T17:15:30.896Z,11.90
2017-10-28T17:17:57.469Z,14.53
2017-10-28T17:20:23.720Z,8.53
2017-10-28T17:22:49.959Z,13.43
2017-10-28T17:25:16.872Z,18.80
2017-10-28T17:27:43.116Z,22.80
2017-10-28T17:30:09.417Z,20.13
2017-10-28T17:32:35.652Z,8.93
2017-10-28T17:35:01.842Z,16.77
2017-10-28T17:37:28.921Z,22.53
2017-10-28T17:39:55.110Z,11.13
2017-10-28T17:42:22.073Z,15.27
2017-10-28T17:44:48.279Z,15.43
2017-10-28T17:47:14.506Z,7.50
2017-10-28T17:49:40.746Z,11.90
2017-10-28T17:52:07.780Z,13.23
2017-10-28T17:54:33.970Z,6.57
2017-10-28T17:57:00.874Z,9.00
2017-10-28T17:59:27.092Z,7.20
2017-10-28T18:01:53.293Z,6.23
2017-10-28T18:04:19.556Z,6.50
2017-10-28T18:06:45.782Z,10.70
2017-10-28T18:09:11.969Z,5.03
2017-10-28T18:11:38.114Z,4.23
2017-10-28T18:14:05.046Z,14.97
2017-10-28T18:16:32.009Z,9.50
2017-10-28T18:18:58.938Z,7.07
2017-10-28T18:21:25.135Z,4.57
2017-10-28T18:23:51.326Z,4.77
2017-10-28T18:26:18.289Z,7.83
2017-10-28T18:28:44.525Z,5.07
2017-10-28T18:31:10.843Z,7.73
2017-10-28T18:33:37.009Z,2.13
2017-10-28T18:36:03.299Z,3.43
2017-10-28T18:38:29.493Z,5.47
2017-10-28T18:40:55.701Z,5.80
2017-10-28T18:43:22.638Z,6.90
2017-10-28T18:45:49.557Z,2.30
2017-10-28T18:48:15.791Z,2.40
2017-10-28T18:50:42.032Z,3.60
2017-10-28T18:53:08.280Z,7.53
2017-10-28T18:55:35.215Z,8.03
2017-10-28T18:58:03.896Z,4.80
2017-10-28T19:00:30.128Z,4.30
2017-10-28T19:02:56.340Z,6.40
2017-10-28T19:05:22.553Z,6.80
2017-10-28T19:07:49.466Z,4.13
2017-10-28T19:10:15.671Z,16.33
2017-10-28T19:12:41.927Z,5.60
2017-10-28T19:15:08.109Z,13.00
2017-10-28T19:17:35.033Z,9.90
2017-10-28T19:20:02.009Z,8.30
2017-10-28T19:22:28.235Z,4.07
2017-10-28T19:24:54.426Z,9.17
2017-10-28T19:27:20.654Z,8.87
2017-10-28T19:29:46.847Z,5.60
2017-10-28T19:32:13.834Z,11.63
2017-10-28T19:34:40.050Z,11.53
2017-10-28T19:37:06.207Z,12.13
2017-10-28T19:39:32.369Z,13.13
2017-10-28T19:41:59.321Z,10.97
2017-10-28T19:44:25.502Z,6.67
2017-10-28T19:46:51.686Z,11.07
2017-10-28T19:49:18.649Z,13.50
2017-10-28T19:51:44.812Z,14.93
2017-10-28T19:54:11.002Z,8.60
2017-10-28T19:56:37.235Z,11.30
2017-10-28T19:59:03.413Z,11.17
2017-10-28T20:01:29.670Z,12.43
2017-10-28T20:03:56.691Z,10.10
2017-10-28T20:06:22.902Z,12.07
2017-10-28T20:08:49.859Z,10.67
2017-10-28T20:11:16.109Z,8.87
2017-10-28T20:13:42.289Z,16.00
2017-10-28T20:16:08.505Z,12.00
2017-10-28T20:18:34.750Z,9.97
2017-10-28T20:21:00.965Z,10.47
2017-10-28T20:23:27.259Z,10.87
2017-10-28T20:25:53.549Z,5.97
2017-10-28T20:28:19.816Z,11.60
2017-10-28T20:30:46.053Z,5.97
2017-10-28T20:33:13.089Z,13.10
2017-10-28T20:35:40.037Z,14.20
2017-10-28T20:38:06.254Z,15.90
2017-10-28T20:40:32.494Z,21.70
2017-10-28T20:42:58.709Z,19.17
2017-10-28T20:45:24.965Z,13.13
2017-10-28T20:47:51.177Z,17.50
2017-10-28T20:50:17.438Z,24.67
2017-10-28T20:52:43.613Z,21.43
2017-10-28T20:55:09.855Z,20.57
2017-10-28T20:57:36.774Z,22.90
2017-10-28T21:00:02.954Z,17.03
2017-10-28T21:02:29.213Z,26.67
2017-10-28T21:04:55.386Z,15.00
2017-10-28T21:07:21.574Z,24.07
2017-10-28T21:09:48.579Z,26.93
2017-10-28T21:12:14.758Z,19.03
2017-10-28T21:14:40.938Z,21.77
2017-10-28T21:17:07.865Z,12.43
2017-10-28T21:19:34.067Z,13.47
2017-10-28T21:22:00.242Z,22.63
2017-10-28T21:24:27.301Z,18.53
2017-10-28T21:26:53.478Z,17.53
2017-10-28T21:29:19.668Z,24.47
2017-10-28T21:31:48.329Z,24.13
2017-10-28T21:34:14.621Z,18.47
2017-10-28T21:36:40.801Z,20.87
2017-10-28T21:39:07.041Z,24.77
2017-10-28T21:41:33.205Z,19.07
2017-10-28T21:44:00.149Z,15.07
2017-10-28T21:46:28.033Z,27.43
2017-10-28T21:48:54.229Z,28.10
2017-10-28T21:51:20.446Z,22.60
2017-10-28T21:53:46.622Z,25.37
2017-10-28T21:56:12.809Z,24.77
2017-10-28T21:58:38.968Z,24.20
2017-10-28T22:01:06.789Z,21.30
2017-10-28T22:03:33.049Z,27.50
2017-10-28T22:05:59.240Z,24.13
2017-10-28T22:08:26.197Z,24.03
2017-10-28T22:10:53.142Z,25.03
2017-10-28T22:13:20.086Z,27.27
2017-10-28T22:15:47.764Z,21.13
2017-10-28T22:18:14.701Z,24.10
2017-10-28T22:20:40.909Z,15.63
2017-10-28T22:23:08.080Z,23.93
2017-10-28T22:25:35.755Z,28.03
2017-10-28T22:28:01.946Z,29.53
2017-10-28T22:30:28.142Z,28.90
2017-10-28T22:32:54.328Z,18.73
2017-10-28T22:35:20.568Z,33.93
2017-10-28T22:37:46.770Z,20.97
2017-10-28T22:40:12.935Z,44.93
2017-10-28T22:42:39.117Z,24.33
2017-10-28T22:45:06.110Z,28.43
2017-10-28T22:47:32.304Z,23.30
2017-10-28T22:49:59.269Z,29.97
2017-10-28T22:52:25.519Z,27.70
2017-10-28T22:54:51.705Z,24.43
2017-10-28T22:57:17.886Z,29.80
2017-10-28T22:59:44.169Z,34.60
2017-10-28T23:02:11.085Z,24.73
2017-10-28T23:04:37.253Z,27.93
2017-10-28T23:07:05.147Z,20.83
2017-10-28T23:09:31.317Z,23.40
2017-10-28T23:11:57.469Z,38.40
2017-10-28T23:14:24.515Z,26.37
2017-10-28T23:16:50.670Z,25.50
2017-10-28T23:19:16.877Z,42.90
2017-10-28T23:21:43.152Z,22.13
2017-10-28T23:24:10.950Z,14.43
2017-10-28T23:26:37.163Z,11.53
2017-10-28T23:29:04.977Z,19.83
2017-10-28T23:31:32.690Z,12.90
2017-10-28T23:33:59.666Z,23.93
2017-10-28T23:36:26.856Z,19.77
2017-10-28T23:38:53.063Z,11.43
2017-10-28T23:41:19.288Z,24.00
2017-10-28T23:43:47.028Z,23.60
2017-10-28T23:46:13.212Z,23.97
2017-10-28T23:48:39.371Z,19.03
2017-10-28T23:51:08.776Z,23.90
2017-10-28T23:53:34.966Z,34.27
2017-10-28T23:56:01.951Z,17.17
2017-10-28T23:58:29.833Z,31.27
